createdAt,value
2017-12-25T00:00:17.563Z,6.80
2017-12-25T00:02:43.744Z,7.80
2017-12-25T00:05:09.936Z,6.97
2017-12-25T00:07:36.148Z,6.97
2017-12-25T00:10:02.340Z,7.47
2017-12-25T00:12:29.269Z,8.50
2017-12-25T00:14:55.484Z,7.33
2017-12-25T00:17:21.680Z,8.63
2017-12-25T00:19:47.855Z,8.43
2017-12-25T00:22:14.068Z,8.90
2017-12-25T00:24:40.257Z,8.90
2017-12-25T00:27:07.163Z,8.83
2017-12-25T00:29:33.370Z,10.57
2017-12-25T00:32:00.310Z,10.83
2017-12-25T00:34:26.548Z,11.20
2017-12-25T00:36:52.773Z,10.00
2017-12-25T00:39:18.952Z,12.13
2017-12-25T00:41:45.149Z,10.90
2017-12-25T00:44:11.339Z,11.50
2017-12-25T00:46:38.292Z,12.57
2017-12-25T00:49:04.524Z,11.13
2017-12-25T00:51:30.711Z,13.60
2017-12-25T00:53:56.924Z,13.43
2017-12-25T00:56:23.149Z,12.50
2017-12-25T00:58:50.090Z,12.67
2017-12-25T01:01:17.032Z,12.50
2017-12-25T01:03:44.005Z,12.57
2017-12-25T01:06:10.278Z,13.47
2017-12-25T01:08:36.473Z,11.97
2017-12-25T01:11:02.704Z,12.13
2017-12-25T01:13:28.901Z,12.20
2017-12-25T01:15:55.089Z,11.90
2017-12-25T01:18:21.284Z,11.90
2017-12-25T01:20:48.267Z,12.23
2017-12-25T01:23:14.448Z,11.60
2017-12-25T01:25:40.638Z,12.53
2017-12-25T01:28:07.573Z,12.23
2017-12-25T01:30:34.484Z,11.93
2017-12-25T01:33:00.731Z,12.30
2017-12-25T01:35:27.048Z,12.33
2017-12-25T01:37:53.441Z,11.50
2017-12-25T01:40:19.636Z,11.20
2017-12-25T01:42:45.889Z,12.57
2017-12-25T01:45:12.852Z,13.03
2017-12-25T01:47:39.802Z,13.77
2017-12-25T01:50:06.045Z,13.23
2017-12-25T01:52:32.250Z,12.30
2017-12-25T01:54:58.436Z,12.93
2017-12-25T01:57:26.640Z,11.57
2017-12-25T02:00:02.767Z,12.03
2017-12-25T02:02:28.934Z,12.67
2017-12-25T02:05:02.125Z,11.43
2017-12-25T02:10:27.713Z,13.07
2017-12-25T02:12:53.931Z,13.00
2017-12-25T02:15:20.139Z,11.97
2017-12-25T02:17:46.313Z,12.63
2017-12-25T02:20:12.528Z,13.03
2017-12-25T02:22:39.460Z,13.00
2017-12-25T02:25:05.661Z,11.80
2017-12-25T02:27:31.848Z,12.03
2017-12-25T02:29:58.080Z,12.50
2017-12-25T02:32:25.008Z,11.67
2017-12-25T02:34:51.432Z,12.07
2017-12-25T02:37:17.704Z,11.90
2017-12-25T02:39:43.928Z,12.87
2017-12-25T02:42:10.251Z,12.27
2017-12-25T02:44:37.919Z,12.40
2017-12-25T02:47:04.106Z,11.43
2017-12-25T02:49:32.034Z,12.97
2017-12-25T02:51:58.234Z,11.20
2017-12-25T02:54:24.444Z,11.90
2017-12-25T02:56:50.636Z,12.90
2017-12-25T02:59:17.578Z,12.57
2017-12-25T03:01:43.796Z,13.07
2017-12-25T03:04:10.008Z,13.00
2017-12-25T03:06:36.204Z,12.40
2017-12-25T03:09:03.138Z,12.37
2017-12-25T03:11:29.352Z,12.93
2017-12-25T03:13:55.540Z,12.40
2017-12-25T03:16:21.752Z,11.90
2017-12-25T03:18:48.727Z,10.93
2017-12-25T03:21:14.942Z,11.50
2017-12-25T03:23:41.197Z,12.80
2017-12-25T03:26:07.395Z,12.67
2017-12-25T03:28:33.625Z,11.93
2017-12-25T03:31:00.571Z,11.73
2017-12-25T03:33:26.796Z,11.47
2017-12-25T03:35:53.004Z,12.13
2017-12-25T03:38:20.992Z,12.17
2017-12-25T03:40:48.468Z,11.47
2017-12-25T03:43:14.664Z,10.83
2017-12-25T03:45:40.853Z,10.80
2017-12-25T03:48:07.088Z,10.37
2017-12-25T03:50:34.064Z,10.83
2017-12-25T03:53:00.291Z,9.20
2017-12-25T03:55:26.491Z,9.37
2017-12-25T03:57:52.672Z,10.13
2017-12-25T04:00:18.886Z,9.40
2017-12-25T04:02:45.115Z,9.27
2017-12-25T04:05:12.077Z,8.63
2017-12-25T04:07:39.004Z,9.37
2017-12-25T04:10:05.200Z,8.57
2017-12-25T04:12:31.395Z,8.80
2017-12-25T04:14:58.336Z,9.00
2017-12-25T04:17:25.284Z,8.57
2017-12-25T04:19:52.212Z,9.97
2017-12-25T04:22:18.412Z,8.00
2017-12-25T04:24:44.603Z,8.07
2017-12-25T04:27:11.576Z,7.80
2017-12-25T04:29:37.773Z,8.37
2017-12-25T04:32:04.751Z,9.40
2017-12-25T04:34:31.659Z,9.10
2017-12-25T04:36:57.889Z,9.23
2017-12-25T04:39:25.053Z,8.80
2017-12-25T04:41:54.096Z,9.70
2017-12-25T04:44:21.032Z,8.93
2017-12-25T04:46:47.238Z,8.33
2017-12-25T04:49:13.444Z,8.27
2017-12-25T04:51:39.665Z,8.23
2017-12-25T04:54:05.840Z,10.07
2017-12-25T04:56:32.068Z,8.47
2017-12-25T04:58:58.256Z,8.37
2017-12-25T05:01:24.480Z,7.00
2017-12-25T05:03:51.425Z,7.30
2017-12-25T05:06:18.356Z,7.97
2017-12-25T05:08:44.576Z,7.73
2017-12-25T05:11:10.768Z,7.20
2017-12-25T05:13:36.944Z,7.13
2017-12-25T05:16:03.219Z,5.87
2017-12-25T05:18:30.152Z,6.40
2017-12-25T05:20:56.315Z,5.87
2017-12-25T05:23:22.527Z,6.07
2017-12-25T05:25:49.468Z,5.83
2017-12-25T05:28:15.664Z,5.37
2017-12-25T05:30:41.877Z,5.17
2017-12-25T05:33:08.097Z,5.60
2017-12-25T05:35:34.314Z,6.10
2017-12-25T05:38:01.344Z,5.67
2017-12-25T05:40:27.588Z,6.77
2017-12-25T05:42:54.599Z,5.60
2017-12-25T05:45:20.944Z,6.67
2017-12-25T05:47:47.173Z,6.53
2017-12-25T05:50:13.375Z,5.60
2017-12-25T05:52:39.580Z,6.07
2017-12-25T05:55:06.576Z,5.30
2017-12-25T05:57:32.782Z,6.00
2017-12-25T06:00:00.633Z,7.43
2017-12-25T06:02:27.600Z,6.60
2017-12-25T06:04:54.536Z,7.63
2017-12-25T06:07:20.832Z,7.47
2017-12-25T06:09:47.004Z,6.73
2017-12-25T06:12:13.201Z,7.97
2017-12-25T06:14:39.428Z,7.40
2017-12-25T06:17:05.621Z,8.03
2017-12-25T06:19:32.562Z,8.33
2017-12-25T06:21:58.756Z,8.70
2017-12-25T06:24:24.980Z,10.53
2017-12-25T06:26:51.187Z,11.47
2017-12-25T06:29:18.164Z,12.70
2017-12-25T06:31:44.356Z,12.53
2017-12-25T06:34:11.302Z,12.17
2017-12-25T06:36:37.516Z,11.00
2017-12-25T06:39:03.707Z,12.00
2017-12-25T06:41:29.990Z,11.70
2017-12-25T06:43:56.400Z,12.47
2017-12-25T06:46:22.594Z,12.30
2017-12-25T06:48:49.538Z,12.83
2017-12-25T06:51:16.481Z,14.10
2017-12-25T06:53:42.710Z,14.80
2017-12-25T06:56:08.916Z,13.13
2017-12-25T06:58:35.150Z,13.00
2017-12-25T07:01:01.340Z,13.83
2017-12-25T07:03:28.269Z,12.73
2017-12-25T07:05:55.224Z,13.07
2017-12-25T07:08:22.176Z,13.17
2017-12-25T07:10:49.107Z,12.67
2017-12-25T07:13:15.323Z,12.80
2017-12-25T07:15:41.512Z,12.90
2017-12-25T07:18:08.460Z,11.77
2017-12-25T07:20:35.412Z,13.97
2017-12-25T07:23:01.653Z,13.30
2017-12-25T07:25:27.868Z,12.83
2017-12-25T07:27:54.818Z,11.70
2017-12-25T07:30:21.773Z,11.63
2017-12-25T07:32:47.953Z,10.77
2017-12-25T07:35:14.131Z,13.13
2017-12-25T07:37:41.060Z,12.57
2017-12-25T07:40:07.248Z,12.83
2017-12-25T07:42:33.740Z,11.63
2017-12-25T07:45:00.153Z,10.83
2017-12-25T07:47:26.324Z,12.77
2017-12-25T07:49:52.528Z,10.83
2017-12-25T07:52:18.733Z,11.30
2017-12-25T07:54:44.916Z,12.07
2017-12-25T07:57:11.141Z,11.40
2017-12-25T07:59:37.328Z,11.57
2017-12-25T08:02:03.556Z,12.33
2017-12-25T08:04:29.808Z,11.13
2017-12-25T08:06:56.016Z,13.03
2017-12-25T08:09:22.976Z,12.57
2017-12-25T08:11:49.200Z,12.10
2017-12-25T08:14:15.431Z,11.87
2017-12-25T08:16:42.392Z,12.90
2017-12-25T08:19:08.704Z,10.73
2017-12-25T08:21:35.636Z,11.90
2017-12-25T08:24:01.814Z,12.87
2017-12-25T08:26:28.039Z,11.30
2017-12-25T08:28:54.969Z,12.37
2017-12-25T08:31:21.181Z,12.30
2017-12-25T08:33:47.408Z,13.70
2017-12-25T08:36:13.625Z,13.00
2017-12-25T08:38:39.836Z,12.60
2017-12-25T08:41:06.069Z,15.00
2017-12-25T08:43:32.346Z,14.90
2017-12-25T08:45:58.761Z,13.57
2017-12-25T08:48:24.956Z,14.00
2017-12-25T08:50:51.872Z,15.10
2017-12-25T08:53:18.060Z,14.10
2017-12-25T08:55:44.289Z,13.87
2017-12-25T08:58:11.336Z,13.80
2017-12-25T09:00:38.297Z,13.33
2017-12-25T09:03:04.516Z,13.77
2017-12-25T09:05:31.450Z,12.77
2017-12-25T09:07:58.456Z,12.60
2017-12-25T09:10:24.674Z,12.53
2017-12-25T09:12:51.492Z,11.60
2017-12-25T09:15:17.672Z,12.00
2017-12-25T09:17:43.905Z,13.00
2017-12-25T09:20:10.099Z,14.77
2017-12-25T09:22:37.043Z,12.70
2017-12-25T09:25:04.008Z,12.83
2017-12-25T09:27:30.929Z,12.87
2017-12-25T09:29:57.134Z,12.30
2017-12-25T09:32:23.365Z,10.43
2017-12-25T09:34:49.576Z,9.37
2017-12-25T09:37:15.800Z,10.53
2017-12-25T09:39:42.803Z,10.87
2017-12-25T09:42:09.012Z,10.50
2017-12-25T09:44:35.330Z,9.80
2017-12-25T09:47:01.584Z,9.93
2017-12-25T09:49:27.799Z,9.17
2017-12-25T09:51:54.751Z,9.43
2017-12-25T09:54:21.716Z,9.73
2017-12-25T09:56:47.989Z,9.20
2017-12-25T09:59:14.965Z,8.40
2017-12-25T10:01:41.909Z,9.00
2017-12-25T10:04:08.106Z,9.37
2017-12-25T10:06:34.354Z,9.63
2017-12-25T10:09:00.599Z,9.70
2017-12-25T10:11:26.834Z,8.90
2017-12-25T10:13:53.060Z,9.73
2017-12-25T10:16:19.290Z,9.10
2017-12-25T10:18:45.485Z,8.93
2017-12-25T10:21:11.702Z,9.80
2017-12-25T10:23:38.673Z,8.80
2017-12-25T10:26:04.872Z,8.80
2017-12-25T10:28:31.077Z,8.20
2017-12-25T10:30:57.293Z,8.73
2017-12-25T10:33:23.527Z,8.73
2017-12-25T10:35:49.731Z,7.73
2017-12-25T10:38:16.692Z,7.70
2017-12-25T10:40:42.904Z,7.87
2017-12-25T10:43:09.868Z,9.60
2017-12-25T10:45:36.102Z,8.47
2017-12-25T10:48:02.504Z,8.17
2017-12-25T10:50:28.704Z,7.23
2017-12-25T10:52:54.927Z,8.60
2017-12-25T10:55:21.119Z,7.97
2017-12-25T10:57:47.298Z,7.80
2017-12-25T11:00:13.521Z,7.50
2017-12-25T11:02:40.456Z,8.20
2017-12-25T11:05:07.389Z,7.70
2017-12-25T11:07:33.612Z,7.80
2017-12-25T11:09:59.808Z,7.63
2017-12-25T11:12:25.993Z,7.57
2017-12-25T11:14:52.201Z,7.07
2017-12-25T11:17:18.398Z,7.07
2017-12-25T11:19:44.628Z,7.87
2017-12-25T11:22:10.841Z,7.20
2017-12-25T11:24:37.775Z,6.63
2017-12-25T11:27:03.980Z,6.73
2017-12-25T11:29:30.242Z,7.80
2017-12-25T11:31:56.457Z,6.30
2017-12-25T11:34:22.637Z,7.10
2017-12-25T11:36:49.576Z,8.40
2017-12-25T11:39:16.508Z,6.53
2017-12-25T11:41:42.761Z,7.17
2017-12-25T11:44:08.964Z,8.43
2017-12-25T11:46:35.248Z,7.57
2017-12-25T11:49:01.637Z,7.57
2017-12-25T11:51:27.844Z,7.47
2017-12-25T11:53:54.018Z,7.13
2017-12-25T11:56:20.230Z,7.70
2017-12-25T11:58:46.436Z,7.90
2017-12-25T12:01:12.680Z,6.80
2017-12-25T12:03:38.911Z,7.07
2017-12-25T12:06:05.125Z,7.70
2017-12-25T12:08:31.365Z,7.07
2017-12-25T12:10:57.544Z,7.23
2017-12-25T12:13:23.734Z,7.20
2017-12-25T12:15:49.924Z,6.40
2017-12-25T12:18:16.105Z,6.20
2017-12-25T12:20:42.304Z,6.23
2017-12-25T12:23:09.258Z,6.33
2017-12-25T12:25:36.203Z,6.50
2017-12-25T12:28:02.421Z,5.70
2017-12-25T12:30:28.612Z,6.07
2017-12-25T12:32:54.789Z,5.87
2017-12-25T12:35:21.025Z,6.50
2017-12-25T12:37:47.216Z,5.50
2017-12-25T12:40:13.420Z,5.70
2017-12-25T12:42:39.615Z,6.23
2017-12-25T12:45:05.793Z,6.57
2017-12-25T12:47:32.807Z,5.80
2017-12-25T12:49:59.242Z,5.67
2017-12-25T12:52:25.436Z,5.20
2017-12-25T12:54:51.622Z,5.03
2017-12-25T12:57:17.839Z,5.40
2017-12-25T12:59:44.009Z,5.80
2017-12-25T13:02:10.950Z,5.20
2017-12-25T13:04:37.141Z,4.87
2017-12-25T13:07:03.324Z,4.60
2017-12-25T13:09:30.287Z,5.70
2017-12-25T13:11:56.480Z,6.00
2017-12-25T13:14:22.656Z,5.30
2017-12-25T13:16:49.586Z,6.10
2017-12-25T13:19:15.781Z,4.83
2017-12-25T13:21:41.965Z,4.60
2017-12-25T13:24:08.172Z,4.47
2017-12-25T13:26:34.388Z,5.67
2017-12-25T13:29:00.591Z,5.20
2017-12-25T13:31:26.764Z,5.03
2017-12-25T13:33:52.988Z,5.17
2017-12-25T13:36:19.167Z,4.70
2017-12-25T13:38:45.402Z,11.23
2017-12-25T13:41:11.595Z,5.50
2017-12-25T13:43:37.813Z,4.67
2017-12-25T13:46:03.996Z,5.30
2017-12-25T13:48:30.490Z,4.70
2017-12-25T13:50:56.905Z,5.20
2017-12-25T13:53:23.838Z,5.20
2017-12-25T13:55:50.837Z,5.33
2017-12-25T13:58:17.012Z,5.03
2017-12-25T14:00:43.948Z,4.57
2017-12-25T14:03:10.230Z,4.90
2017-12-25T14:05:36.426Z,4.47
2017-12-25T14:08:02.661Z,5.10
2017-12-25T14:10:29.635Z,5.27
2017-12-25T14:12:56.561Z,5.93
2017-12-25T14:15:22.760Z,6.20
2017-12-25T14:17:49.072Z,4.87
2017-12-25T14:20:15.985Z,5.47
2017-12-25T14:22:42.164Z,5.03
2017-12-25T14:25:08.377Z,5.20
2017-12-25T14:27:35.311Z,5.33
2017-12-25T14:30:02.289Z,5.40
2017-12-25T14:32:28.520Z,5.40
2017-12-25T14:34:55.489Z,5.37
2017-12-25T14:37:21.701Z,4.80
2017-12-25T14:39:48.652Z,5.73
2017-12-25T14:42:14.889Z,5.00
2017-12-25T14:44:41.834Z,5.33
2017-12-25T14:47:08.786Z,5.00
2017-12-25T14:49:35.826Z,5.50
2017-12-25T14:52:02.187Z,5.57
2017-12-25T14:54:28.384Z,5.03
2017-12-25T14:56:55.332Z,4.60
2017-12-25T14:59:21.545Z,4.07
2017-12-25T15:01:47.736Z,5.20
2017-12-25T15:04:13.924Z,5.07
2017-12-25T15:06:40.885Z,4.80
2017-12-25T15:09:07.081Z,5.10
2017-12-25T15:11:33.253Z,5.40
2017-12-25T15:13:59.541Z,5.03
2017-12-25T15:16:25.771Z,4.33
2017-12-25T15:18:51.956Z,5.10
2017-12-25T15:21:18.147Z,4.70
2017-12-25T15:23:44.345Z,5.77
2017-12-25T15:26:11.320Z,5.00
2017-12-25T15:28:37.548Z,4.70
2017-12-25T15:31:04.512Z,4.30
2017-12-25T15:33:30.693Z,4.90
2017-12-25T15:35:56.864Z,4.20
2017-12-25T15:38:23.076Z,4.20
2017-12-25T15:40:50.012Z,4.33
2017-12-25T15:43:16.225Z,4.73
2017-12-25T15:45:42.424Z,5.03
2017-12-25T15:48:08.608Z,5.30
2017-12-25T15:50:34.868Z,4.83
2017-12-25T15:53:01.385Z,4.77
2017-12-25T15:55:27.585Z,4.90
2017-12-25T15:57:54.144Z,4.47
2017-12-25T16:00:20.379Z,4.80
2017-12-25T16:02:46.582Z,5.30
2017-12-25T16:05:12.807Z,5.13
2017-12-25T16:07:39.022Z,5.10
2017-12-25T16:10:05.224Z,4.60
2017-12-25T16:12:31.413Z,4.43
2017-12-25T16:14:57.612Z,4.90
2017-12-25T16:17:23.800Z,4.23
2017-12-25T16:19:50.009Z,4.23
2017-12-25T16:22:16.985Z,4.50
2017-12-25T16:24:43.188Z,4.60
2017-12-25T16:27:10.132Z,4.13
2017-12-25T16:29:36.387Z,4.03
2017-12-25T16:32:02.601Z,4.33
2017-12-25T16:34:29.541Z,4.50
2017-12-25T16:36:55.751Z,4.00
2017-12-25T16:39:21.933Z,3.93
2017-12-25T16:41:48.829Z,4.20
2017-12-25T16:44:15.055Z,4.00
2017-12-25T16:46:41.287Z,3.80
2017-12-25T16:49:07.499Z,4.23
2017-12-25T16:51:33.760Z,4.03
2017-12-25T16:54:00.186Z,3.40
2017-12-25T16:56:26.381Z,3.20
2017-12-25T16:58:53.353Z,3.43
2017-12-25T17:01:19.541Z,2.73
2017-12-25T17:03:45.732Z,3.40
2017-12-25T17:06:11.961Z,3.37
2017-12-25T17:08:38.151Z,3.27
2017-12-25T17:11:04.363Z,3.67
2017-12-25T17:13:30.612Z,3.70
2017-12-25T17:15:56.841Z,3.00
2017-12-25T17:18:24.530Z,2.90
2017-12-25T17:20:50.715Z,3.50
2017-12-25T17:23:16.879Z,3.10
2017-12-25T17:25:43.056Z,3.50
2017-12-25T17:28:09.281Z,3.10
2017-12-25T17:30:36.196Z,3.47
2017-12-25T17:33:02.557Z,3.60
2017-12-25T17:35:29.493Z,3.50
2017-12-25T17:37:57.178Z,4.20
2017-12-25T17:40:24.132Z,3.60
2017-12-25T17:42:50.368Z,4.43
2017-12-25T17:45:17.319Z,3.97
2017-12-25T17:47:43.506Z,3.57
2017-12-25T17:50:09.699Z,3.63
2017-12-25T17:52:35.985Z,4.73
2017-12-25T17:55:02.413Z,4.40
2017-12-25T17:57:28.612Z,4.17
2017-12-25T17:59:55.526Z,5.47
2017-12-25T18:02:22.470Z,3.90
2017-12-25T18:04:49.432Z,4.40
2017-12-25T18:07:15.634Z,4.63
2017-12-25T18:09:41.836Z,4.10
2017-12-25T18:12:08.036Z,4.77
2017-12-25T18:14:34.957Z,5.37
2017-12-25T18:17:01.157Z,5.30
2017-12-25T18:19:27.350Z,5.23
2017-12-25T18:21:53.514Z,5.70
2017-12-25T18:24:20.460Z,4.83
2017-12-25T18:26:46.683Z,5.90
2017-12-25T18:29:13.636Z,5.30
2017-12-25T18:31:39.863Z,5.30
2017-12-25T18:34:06.049Z,5.10
2017-12-25T18:36:32.268Z,5.20
2017-12-25T18:38:58.492Z,4.97
2017-12-25T18:41:24.728Z,5.00
2017-12-25T18:43:50.924Z,4.60
2017-12-25T18:46:17.108Z,4.63
2017-12-25T18:48:43.300Z,4.40
2017-12-25T18:51:10.228Z,4.70
2017-12-25T18:53:36.631Z,3.97
2017-12-25T18:56:03.096Z,4.07
2017-12-25T18:58:29.280Z,4.77
2017-12-25T19:00:55.502Z,4.30
2017-12-25T19:03:22.453Z,4.23
2017-12-25T19:05:49.423Z,4.50
2017-12-25T19:08:15.600Z,4.07
2017-12-25T19:10:41.825Z,3.90
2017-12-25T19:13:07.988Z,4.50
2017-12-25T19:15:34.165Z,4.40
2017-12-25T19:18:00.370Z,5.00
2017-12-25T19:20:27.342Z,4.77
2017-12-25T19:22:54.287Z,5.20
2017-12-25T19:25:20.545Z,4.90
2017-12-25T19:27:46.737Z,4.67
2017-12-25T19:30:12.940Z,6.37
2017-12-25T19:32:39.120Z,6.73
2017-12-25T19:35:05.309Z,8.23
2017-12-25T19:37:31.540Z,8.40
2017-12-25T19:39:57.785Z,9.03
2017-12-25T19:42:23.965Z,10.93
2017-12-25T19:44:50.174Z,11.77
2017-12-25T19:47:16.369Z,10.53
2017-12-25T19:49:42.600Z,11.37
2017-12-25T19:52:08.808Z,11.03
2017-12-25T19:54:35.164Z,13.27
2017-12-25T19:57:01.591Z,13.53
2017-12-25T19:59:27.757Z,14.60
2017-12-25T20:01:53.956Z,15.07
2017-12-25T20:04:20.129Z,15.60
2017-12-25T20:06:46.308Z,16.10
2017-12-25T20:09:13.249Z,15.60
2017-12-25T20:11:40.174Z,14.63
2017-12-25T20:14:07.095Z,14.93
2017-12-25T20:16:33.366Z,15.63
2017-12-25T20:18:59.553Z,14.30
2017-12-25T20:21:25.712Z,15.20
2017-12-25T20:23:51.892Z,14.87
2017-12-25T20:26:18.820Z,14.03
2017-12-25T20:28:45.740Z,13.03
2017-12-25T20:31:11.940Z,12.10
2017-12-25T20:33:38.157Z,13.27
2017-12-25T20:36:04.385Z,12.63
2017-12-25T20:38:30.639Z,12.63
2017-12-25T20:40:56.820Z,12.17
2017-12-25T20:43:22.977Z,11.97
2017-12-25T20:45:49.200Z,12.40
2017-12-25T20:48:15.367Z,12.13
2017-12-25T20:50:41.540Z,12.23
2017-12-25T20:53:07.778Z,11.23
2017-12-25T20:55:34.104Z,12.30
2017-12-25T20:58:00.525Z,11.53
2017-12-25T21:00:26.748Z,10.40
2017-12-25T21:02:52.948Z,12.53
2017-12-25T21:05:19.896Z,11.27
2017-12-25T21:07:46.892Z,11.50
2017-12-25T21:10:13.088Z,10.87
2017-12-25T21:12:40.053Z,11.37
2017-12-25T21:15:07.003Z,10.67
2017-12-25T21:17:33.940Z,10.10
2017-12-25T21:20:00.169Z,10.47
2017-12-25T21:22:27.121Z,8.83
2017-12-25T21:24:54.072Z,9.37
2017-12-25T21:27:20.273Z,9.60
2017-12-25T21:29:46.520Z,10.50
2017-12-25T21:32:12.764Z,9.53
2017-12-25T21:34:38.979Z,8.87
2017-12-25T21:37:05.216Z,8.80
2017-12-25T21:39:31.425Z,9.20
2017-12-25T21:41:57.668Z,9.43
2017-12-25T21:44:23.893Z,9.27
2017-12-25T21:46:50.093Z,9.20
2017-12-25T21:49:16.269Z,9.03
2017-12-25T21:51:42.500Z,9.80
2017-12-25T21:54:08.713Z,9.00
2017-12-25T21:56:35.893Z,10.30
2017-12-25T21:59:02.363Z,10.30
2017-12-25T22:01:29.332Z,10.20
2017-12-25T22:03:56.276Z,10.10
2017-12-25T22:06:22.488Z,10.53
2017-12-25T22:08:48.685Z,11.07
2017-12-25T22:11:14.864Z,11.87
2017-12-25T22:13:41.077Z,12.00
2017-12-25T22:16:07.268Z,12.57
2017-12-25T22:18:34.200Z,11.60
2017-12-25T22:21:00.376Z,13.27
2017-12-25T22:23:26.592Z,13.27
2017-12-25T22:25:53.549Z,11.70
2017-12-25T22:28:19.759Z,10.50
2017-12-25T22:30:45.939Z,11.17
2017-12-25T22:33:12.136Z,11.60
2017-12-25T22:35:39.103Z,11.27
2017-12-25T22:38:05.317Z,11.17
2017-12-25T22:40:32.236Z,11.17
2017-12-25T22:42:58.507Z,11.90
2017-12-25T22:45:25.436Z,11.40
2017-12-25T22:47:51.644Z,9.97
2017-12-25T22:50:17.851Z,9.90
2017-12-25T22:52:44.040Z,9.23
2017-12-25T22:55:10.238Z,8.70
2017-12-25T22:57:36.496Z,8.63
2017-12-25T23:00:02.886Z,8.00
2017-12-25T23:02:29.830Z,8.13
2017-12-25T23:04:56.786Z,7.70
2017-12-25T23:07:22.995Z,7.47
2017-12-25T23:09:49.928Z,8.20
2017-12-25T23:12:16.171Z,7.53
2017-12-25T23:14:42.360Z,6.77
2017-12-25T23:17:08.574Z,7.10
2017-12-25T23:19:34.802Z,6.50
2017-12-25T23:22:01.004Z,6.00
2017-12-25T23:24:27.937Z,6.63
2017-12-25T23:26:54.148Z,6.60
2017-12-25T23:29:20.344Z,6.20
2017-12-25T23:31:47.281Z,6.20
2017-12-25T23:34:14.243Z,5.23
2017-12-25T23:36:41.168Z,6.20
2017-12-25T23:39:07.392Z,5.70
2017-12-25T23:41:33.576Z,5.70
2017-12-25T23:43:59.784Z,5.60
2017-12-25T23:46:26.728Z,5.20
2017-12-25T23:48:52.915Z,5.17
2017-12-25T23:51:19.129Z,4.97
2017-12-25T23:53:45.347Z,5.87
2017-12-25T23:56:12.310Z,5.23
2017-12-25T23:58:39.308Z,6.23
